sensor_id;sensor_type;location;lat;lon;timestamp;pressure;altitude;pressure_sealevel;temperature;humidity
56568;BME280;42456;49.956;20.004;2022-07-23T00:00:05;98363.20;;;19.08;71.24
56568;BME280;42456;49.956;20.004;2022-07-23T00:02:32;98367.86;;;19.07;71.31
56568;BME280;42456;49.956;20.004;2022-07-23T00:05:01;98360.86;;;19.06;71.34
56568;BME280;42456;49.956;20.004;2022-07-23T00:07:27;98359.47;;;19.03;71.35
56568;BME280;42456;49.956;20.004;2022-07-23T00:09:55;98362.77;;;19.02;71.44
56568;BME280;42456;49.956;20.004;2022-07-23T00:12:22;98356.94;;;19.00;71.47
56568;BME280;42456;49.956;20.004;2022-07-23T00:14:51;98361.78;;;18.97;71.49
56568;BME280;42456;49.956;20.004;2022-07-23T00:17:17;98356.11;;;18.93;71.53
56568;BME280;42456;49.956;20.004;2022-07-23T00:19:44;98364.45;;;18.90;71.59
56568;BME280;42456;49.956;20.004;2022-07-23T00:22:10;98358.02;;;18.89;71.75
56568;BME280;42456;49.956;20.004;2022-07-23T00:24:36;98353.14;;;18.85;71.89
56568;BME280;42456;49.956;20.004;2022-07-23T00:27:03;98353.52;;;18.83;71.98
56568;BME280;42456;49.956;20.004;2022-07-23T00:29:29;98355.64;;;18.80;72.02
56568;BME280;42456;49.956;20.004;2022-07-23T00:31:55;98358.33;;;18.77;72.04
56568;BME280;42456;49.956;20.004;2022-07-23T00:34:22;98363.40;;;18.75;72.11
56568;BME280;42456;49.956;20.004;2022-07-23T00:36:48;98360.83;;;18.72;72.22
56568;BME280;42456;49.956;20.004;2022-07-23T00:39:14;98360.04;;;18.68;72.29
56568;BME280;42456;49.956;20.004;2022-07-23T00:41:41;98369.16;;;18.66;72.32
56568;BME280;42456;49.956;20.004;2022-07-23T00:44:18;98362.34;;;18.62;72.28
56568;BME280;42456;49.956;20.004;2022-07-23T00:46:55;98369.31;;;18.60;72.24
56568;BME280;42456;49.956;20.004;2022-07-23T00:49:29;98365.98;;;18.57;72.36
56568;BME280;42456;49.956;20.004;2022-07-23T00:51:54;98364.23;;;18.55;72.46
56568;BME280;42456;49.956;20.004;2022-07-23T00:54:23;98369.08;;;18.52;72.57
56568;BME280;42456;49.956;20.004;2022-07-23T00:56:51;98374.91;;;18.50;72.72
56568;BME280;42456;49.956;20.004;2022-07-23T00:59:17;98378.38;;;18.47;72.77
56568;BME280;42456;49.956;20.004;2022-07-23T01:01:44;98377.97;;;18.45;72.87
56568;BME280;42456;49.956;20.004;2022-07-23T01:04:12;98372.48;;;18.42;72.90
56568;BME280;42456;49.956;20.004;2022-07-23T01:06:38;98368.96;;;18.38;72.97
56568;BME280;42456;49.956;20.004;2022-07-23T01:09:06;98375.13;;;18.35;73.06
56568;BME280;42456;49.956;20.004;2022-07-23T01:11:36;98378.60;;;18.32;73.12
56568;BME280;42456;49.956;20.004;2022-07-23T01:14:15;98375.46;;;18.30;73.17
56568;BME280;42456;49.956;20.004;2022-07-23T01:16:43;98370.39;;;18.28;73.21
56568;BME280;42456;49.956;20.004;2022-07-23T01:19:11;98369.59;;;18.24;73.27
56568;BME280;42456;49.956;20.004;2022-07-23T01:21:44;98365.69;;;18.22;73.39
56568;BME280;42456;49.956;20.004;2022-07-23T01:24:09;98370.16;;;18.20;73.50
56568;BME280;42456;49.956;20.004;2022-07-23T01:26:37;98373.25;;;18.19;73.67
56568;BME280;42456;49.956;20.004;2022-07-23T01:29:04;98365.45;;;18.17;73.65
56568;BME280;42456;49.956;20.004;2022-07-23T01:31:31;98356.69;;;18.14;73.63
56568;BME280;42456;49.956;20.004;2022-07-23T01:33:58;98357.63;;;18.12;73.67
56568;BME280;42456;49.956;20.004;2022-07-23T01:36:24;98357.44;;;18.11;73.86
56568;BME280;42456;49.956;20.004;2022-07-23T01:38:50;98362.46;;;18.09;73.99
56568;BME280;42456;49.956;20.004;2022-07-23T01:41:17;98360.91;;;18.08;73.97
56568;BME280;42456;49.956;20.004;2022-07-23T01:43:43;98360.86;;;18.05;73.99
56568;BME280;42456;49.956;20.004;2022-07-23T01:46:10;98365.89;;;18.03;74.04
56568;BME280;42456;49.956;20.004;2022-07-23T01:48:37;98371.70;;;18.01;74.11
56568;BME280;42456;49.956;20.004;2022-07-23T01:51:03;98368.59;;;17.99;74.13
56568;BME280;42456;49.956;20.004;2022-07-23T01:53:30;98372.06;;;17.96;74.01
56568;BME280;42456;49.956;20.004;2022-07-23T01:55:58;98365.82;;;17.92;74.05
56568;BME280;42456;49.956;20.004;2022-07-23T01:58:26;98368.13;;;17.90;74.12
56568;BME280;42456;49.956;20.004;2022-07-23T02:00:53;98366.14;;;17.87;74.12
56568;BME280;42456;49.956;20.004;2022-07-23T02:03:20;98364.97;;;17.85;74.18
56568;BME280;42456;49.956;20.004;2022-07-23T02:05:47;98362.39;;;17.82;74.33
56568;BME280;42456;49.956;20.004;2022-07-23T02:08:14;98354.98;;;17.79;74.33
56568;BME280;42456;49.956;20.004;2022-07-23T02:10:40;98356.52;;;17.77;74.40
56568;BME280;42456;49.956;20.004;2022-07-23T02:13:06;98356.09;;;17.75;74.49
56568;BME280;42456;49.956;20.004;2022-07-23T02:15:33;98363.08;;;17.72;74.59
56568;BME280;42456;49.956;20.004;2022-07-23T02:18:00;98363.08;;;17.72;74.69
56568;BME280;42456;49.956;20.004;2022-07-23T02:20:26;98366.73;;;17.70;74.72
56568;BME280;42456;49.956;20.004;2022-07-23T02:22:53;98363.63;;;17.68;74.77
56568;BME280;42456;49.956;20.004;2022-07-23T02:25:19;98361.47;;;17.68;74.79
56568;BME280;42456;49.956;20.004;2022-07-23T02:27:45;98367.85;;;17.66;74.83
56568;BME280;42456;49.956;20.004;2022-07-23T02:30:12;98363.16;;;17.63;74.86
56568;BME280;42456;49.956;20.004;2022-07-23T02:32:39;98369.56;;;17.61;74.94
56568;BME280;42456;49.956;20.004;2022-07-23T02:35:05;98369.52;;;17.57;74.87
56568;BME280;42456;49.956;20.004;2022-07-23T02:37:33;98361.73;;;17.56;74.85
56568;BME280;42456;49.956;20.004;2022-07-23T02:39:59;98362.10;;;17.54;74.88
56568;BME280;42456;49.956;20.004;2022-07-23T02:42:26;98359.75;;;17.53;74.84
56568;BME280;42456;49.956;20.004;2022-07-23T02:44:52;98361.48;;;17.51;74.83
56568;BME280;42456;49.956;20.004;2022-07-23T02:47:18;98356.98;;;17.49;74.93
56568;BME280;42456;49.956;20.004;2022-07-23T02:49:45;98358.34;;;17.49;75.07
56568;BME280;42456;49.956;20.004;2022-07-23T02:52:11;98360.08;;;17.48;75.14
56568;BME280;42456;49.956;20.004;2022-07-23T02:54:38;98361.44;;;17.48;75.21
56568;BME280;42456;49.956;20.004;2022-07-23T02:57:04;98362.03;;;17.47;75.24
56568;BME280;42456;49.956;20.004;2022-07-23T02:59:31;98359.88;;;17.47;75.39
56568;BME280;42456;49.956;20.004;2022-07-23T03:01:57;98356.96;;;17.46;75.53
56568;BME280;42456;49.956;20.004;2022-07-23T03:04:23;98363.95;;;17.47;75.56
56568;BME280;42456;49.956;20.004;2022-07-23T03:06:50;98367.24;;;17.46;75.56
56568;BME280;42456;49.956;20.004;2022-07-23T03:09:16;98364.52;;;17.46;75.62
56568;BME280;42456;49.956;20.004;2022-07-23T03:11:42;98370.75;;;17.47;75.61
56568;BME280;42456;49.956;20.004;2022-07-23T03:14:09;98363.77;;;17.46;75.59
56568;BME280;42456;49.956;20.004;2022-07-23T03:16:37;98363.04;;;17.52;75.63
56568;BME280;42456;49.956;20.004;2022-07-23T03:19:03;98364.89;;;17.61;75.60
56568;BME280;42456;49.956;20.004;2022-07-23T03:21:29;98361.91;;;17.73;75.61
56568;BME280;42456;49.956;20.004;2022-07-23T03:23:56;98365.73;;;17.85;75.38
56568;BME280;42456;49.956;20.004;2022-07-23T03:26:22;98367.25;;;18.03;75.04
56568;BME280;42456;49.956;20.004;2022-07-23T03:28:50;98362.64;;;18.30;74.85
56568;BME280;42456;49.956;20.004;2022-07-23T03:31:20;98363.48;;;18.61;74.57
56568;BME280;42456;49.956;20.004;2022-07-23T03:33:47;98363.21;;;18.77;74.06
56568;BME280;42456;49.956;20.004;2022-07-23T03:36:13;98358.97;;;18.83;73.54
56568;BME280;42456;49.956;20.004;2022-07-23T03:38:39;98359.76;;;18.87;73.27
56568;BME280;42456;49.956;20.004;2022-07-23T03:41:06;98355.09;;;18.88;73.21
56568;BME280;42456;49.956;20.004;2022-07-23T03:43:32;98353.93;;;18.89;73.25
56568;BME280;42456;49.956;20.004;2022-07-23T03:45:59;98354.72;;;18.89;73.17
56568;BME280;42456;49.956;20.004;2022-07-23T03:48:25;98353.36;;;18.89;73.12
56568;BME280;42456;49.956;20.004;2022-07-23T03:50:51;98351.05;;;18.91;73.07
56568;BME280;42456;49.956;20.004;2022-07-23T03:53:18;98354.15;;;18.93;73.18
56568;BME280;42456;49.956;20.004;2022-07-23T03:55:44;98356.33;;;18.97;73.13
56568;BME280;42456;49.956;20.004;2022-07-23T03:58:11;98361.59;;;19.00;73.04
56568;BME280;42456;49.956;20.004;2022-07-23T04:00:37;98359.84;;;19.01;73.00
56568;BME280;42456;49.956;20.004;2022-07-23T04:03:04;98361.81;;;19.04;72.96
56568;BME280;42456;49.956;20.004;2022-07-23T04:05:30;98356.39;;;19.08;73.04
56568;BME280;42456;49.956;20.004;2022-07-23T04:07:56;98353.50;;;19.14;73.14
56568;BME280;42456;49.956;20.004;2022-07-23T04:10:22;98346.89;;;19.18;73.16
56568;BME280;42456;49.956;20.004;2022-07-23T04:12:49;98351.20;;;19.26;73.16
56568;BME280;42456;49.956;20.004;2022-07-23T04:15:15;98348.33;;;19.32;73.20
56568;BME280;42456;49.956;20.004;2022-07-23T04:17:42;98351.30;;;19.40;73.27
56568;BME280;42456;49.956;20.004;2022-07-23T04:20:10;98349.38;;;19.48;73.38
56568;BME280;42456;49.956;20.004;2022-07-23T04:22:37;98344.72;;;19.55;73.43
56568;BME280;42456;49.956;20.004;2022-07-23T04:25:04;98347.27;;;19.61;73.36
56568;BME280;42456;49.956;20.004;2022-07-23T04:27:31;98351.96;;;19.71;73.37
56568;BME280;42456;49.956;20.004;2022-07-23T04:29:59;98346.16;;;19.80;73.41
56568;BME280;42456;49.956;20.004;2022-07-23T04:32:25;98348.52;;;19.92;73.52
56568;BME280;42456;49.956;20.004;2022-07-23T04:34:51;98347.75;;;20.05;73.66
56568;BME280;42456;49.956;20.004;2022-07-23T04:37:17;98345.83;;;20.20;73.60
56568;BME280;42456;49.956;20.004;2022-07-23T04:39:44;98339.60;;;20.37;73.60
56568;BME280;42456;49.956;20.004;2022-07-23T04:42:10;98339.58;;;20.55;73.51
56568;BME280;42456;49.956;20.004;2022-07-23T04:44:36;98333.11;;;20.74;73.35
56568;BME280;42456;49.956;20.004;2022-07-23T04:47:03;98335.82;;;20.95;73.23
56568;BME280;42456;49.956;20.004;2022-07-23T04:49:29;98337.48;;;21.18;73.08
56568;BME280;42456;49.956;20.004;2022-07-23T04:51:55;98344.80;;;21.42;72.76
56568;BME280;42456;49.956;20.004;2022-07-23T04:54:22;98334.53;;;21.67;72.52
56568;BME280;42456;49.956;20.004;2022-07-23T04:56:48;98329.30;;;21.94;71.91
56568;BME280;42456;49.956;20.004;2022-07-23T04:59:14;98331.82;;;22.22;71.88
56568;BME280;42456;49.956;20.004;2022-07-23T05:01:41;98339.45;;;22.52;71.83
56568;BME280;42456;49.956;20.004;2022-07-23T05:04:07;98339.32;;;22.84;71.36
56568;BME280;42456;49.956;20.004;2022-07-23T05:06:33;98340.83;;;23.22;70.77
56568;BME280;42456;49.956;20.004;2022-07-23T05:09:00;98334.83;;;23.64;69.89
56568;BME280;42456;49.956;20.004;2022-07-23T05:11:26;98328.58;;;24.06;69.19
56568;BME280;42456;49.956;20.004;2022-07-23T05:13:52;98332.02;;;24.48;68.51
56568;BME280;42456;49.956;20.004;2022-07-23T05:16:19;98331.96;;;24.86;67.80
56568;BME280;42456;49.956;20.004;2022-07-23T05:18:45;98334.42;;;25.11;66.93
56568;BME280;42456;49.956;20.004;2022-07-23T05:21:11;98328.36;;;25.39;66.17
56568;BME280;42456;49.956;20.004;2022-07-23T05:23:37;98328.95;;;25.66;65.52
56568;BME280;42456;49.956;20.004;2022-07-23T05:26:04;98342.00;;;25.90;64.12
56568;BME280;42456;49.956;20.004;2022-07-23T05:28:30;98339.31;;;26.22;63.41
56568;BME280;42456;49.956;20.004;2022-07-23T05:30:57;98339.58;;;26.36;63.58
56568;BME280;42456;49.956;20.004;2022-07-23T05:33:23;98334.22;;;26.37;62.77
56568;BME280;42456;49.956;20.004;2022-07-23T05:35:49;98334.66;;;26.43;62.64
56568;BME280;42456;49.956;20.004;2022-07-23T05:38:16;98334.05;;;26.60;62.10
56568;BME280;42456;49.956;20.004;2022-07-23T05:40:42;98337.34;;;26.63;62.11
56568;BME280;42456;49.956;20.004;2022-07-23T05:43:08;98332.97;;;26.86;62.09
56568;BME280;42456;49.956;20.004;2022-07-23T05:45:34;98331.67;;;27.27;61.11
56568;BME280;42456;49.956;20.004;2022-07-23T05:48:01;98333.47;;;27.79;60.06
56568;BME280;42456;49.956;20.004;2022-07-23T05:50:27;98325.73;;;28.37;58.52
56568;BME280;42456;49.956;20.004;2022-07-23T05:52:54;98328.64;;;28.80;57.81
56568;BME280;42456;49.956;20.004;2022-07-23T05:55:20;98322.31;;;28.79;56.37
56568;BME280;42456;49.956;20.004;2022-07-23T05:57:46;98319.27;;;28.65;55.37
56568;BME280;42456;49.956;20.004;2022-07-23T06:00:15;98321.66;;;28.58;55.96
56568;BME280;42456;49.956;20.004;2022-07-23T06:02:43;98325.64;;;28.70;56.62
56568;BME280;42456;49.956;20.004;2022-07-23T06:05:09;98321.91;;;28.85;56.13
56568;BME280;42456;49.956;20.004;2022-07-23T06:07:35;98321.20;;;29.28;55.18
56568;BME280;42456;49.956;20.004;2022-07-23T06:10:02;98319.71;;;29.88;54.55
56568;BME280;42456;49.956;20.004;2022-07-23T06:12:30;98320.55;;;30.60;52.06
56568;BME280;42456;49.956;20.004;2022-07-23T06:14:56;98319.63;;;31.58;49.99
56568;BME280;42456;49.956;20.004;2022-07-23T06:17:23;98321.02;;;32.84;46.61
56568;BME280;42456;49.956;20.004;2022-07-23T06:19:49;98325.50;;;34.35;45.32
56568;BME280;42456;49.956;20.004;2022-07-23T06:22:17;98318.01;;;36.25;42.60
56568;BME280;42456;49.956;20.004;2022-07-23T06:24:43;98325.83;;;38.09;40.29
56568;BME280;42456;49.956;20.004;2022-07-23T06:27:10;98325.86;;;39.69;37.73
56568;BME280;42456;49.956;20.004;2022-07-23T06:29:36;98322.34;;;41.13;35.81
56568;BME280;42456;49.956;20.004;2022-07-23T06:32:02;98325.75;;;42.31;33.55
56568;BME280;42456;49.956;20.004;2022-07-23T06:34:29;98322.30;;;43.30;31.71
56568;BME280;42456;49.956;20.004;2022-07-23T06:36:55;98323.39;;;44.08;29.95
56568;BME280;42456;49.956;20.004;2022-07-23T06:39:21;98317.22;;;44.66;28.78
56568;BME280;42456;49.956;20.004;2022-07-23T06:41:48;98314.98;;;44.72;28.42
56568;BME280;42456;49.956;20.004;2022-07-23T06:44:14;98314.73;;;44.00;27.59
56568;BME280;42456;49.956;20.004;2022-07-23T06:46:40;98311.09;;;42.85;27.46
56568;BME280;42456;49.956;20.004;2022-07-23T06:49:07;98307.88;;;41.72;28.14
56568;BME280;42456;49.956;20.004;2022-07-23T06:51:33;98301.22;;;40.70;29.08
56568;BME280;42456;49.956;20.004;2022-07-23T06:54:00;98303.63;;;39.77;29.84
56568;BME280;42456;49.956;20.004;2022-07-23T06:56:26;98308.86;;;39.04;30.93
56568;BME280;42456;49.956;20.004;2022-07-23T06:58:53;98311.64;;;38.30;31.67
56568;BME280;42456;49.956;20.004;2022-07-23T07:01:20;98295.09;;;37.72;32.31
56568;BME280;42456;49.956;20.004;2022-07-23T07:03:47;98295.35;;;37.08;33.11
56568;BME280;42456;49.956;20.004;2022-07-23T07:08:59;98291.09;;;35.96;34.34
56568;BME280;42456;49.956;20.004;2022-07-23T07:11:30;98293.91;;;35.40;35.27
56568;BME280;42456;49.956;20.004;2022-07-23T07:13:58;98290.60;;;35.16;36.42
56568;BME280;42456;49.956;20.004;2022-07-23T07:16:24;98298.19;;;34.90;36.39
56568;BME280;42456;49.956;20.004;2022-07-23T07:18:51;98291.97;;;34.60;36.92
56568;BME280;42456;49.956;20.004;2022-07-23T07:21:17;98297.02;;;34.31;37.01
56568;BME280;42456;49.956;20.004;2022-07-23T07:23:43;98289.64;;;34.14;38.14
56568;BME280;42456;49.956;20.004;2022-07-23T07:26:10;98296.54;;;33.98;38.34
56568;BME280;42456;49.956;20.004;2022-07-23T07:28:36;98296.49;;;33.88;38.24
56568;BME280;42456;49.956;20.004;2022-07-23T07:31:02;98289.17;;;33.76;38.03
56568;BME280;42456;49.956;20.004;2022-07-23T07:33:29;98282.30;;;33.67;38.04
56568;BME280;42456;49.956;20.004;2022-07-23T07:35:55;98280.48;;;33.64;38.54
56568;BME280;42456;49.956;20.004;2022-07-23T07:38:21;98279.35;;;33.56;38.79
56568;BME280;42456;49.956;20.004;2022-07-23T07:40:48;98272.08;;;33.54;38.39
56568;BME280;42456;49.956;20.004;2022-07-23T07:43:14;98271.63;;;33.41;38.25
56568;BME280;42456;49.956;20.004;2022-07-23T07:45:40;98265.20;;;33.31;38.02
56568;BME280;42456;49.956;20.004;2022-07-23T07:48:07;98260.93;;;33.25;38.44
56568;BME280;42456;49.956;20.004;2022-07-23T07:50:33;98268.03;;;33.26;38.59
56568;BME280;42456;49.956;20.004;2022-07-23T07:52:59;98272.13;;;33.35;38.56
56568;BME280;42456;49.956;20.004;2022-07-23T07:55:25;98278.77;;;33.38;38.62
56568;BME280;42456;49.956;20.004;2022-07-23T07:57:52;98276.31;;;33.50;38.13
56568;BME280;42456;49.956;20.004;2022-07-23T08:00:19;98272.22;;;33.55;38.10
56568;BME280;42456;49.956;20.004;2022-07-23T08:02:51;98268.63;;;33.59;38.47
56568;BME280;42456;49.956;20.004;2022-07-23T08:05:25;98275.33;;;33.67;37.91
56568;BME280;42456;49.956;20.004;2022-07-23T08:07:57;98272.54;;;33.67;37.66
56568;BME280;42456;49.956;20.004;2022-07-23T08:10:28;98271.31;;;33.68;36.95
56568;BME280;42456;49.956;20.004;2022-07-23T08:12:55;98278.95;;;33.63;36.24
56568;BME280;42456;49.956;20.004;2022-07-23T08:15:22;98284.39;;;33.62;36.00
56568;BME280;42456;49.956;20.004;2022-07-23T08:17:50;98285.44;;;33.65;36.73
56568;BME280;42456;49.956;20.004;2022-07-23T08:20:19;98288.72;;;33.63;36.47
56568;BME280;42456;49.956;20.004;2022-07-23T08:22:56;98289.28;;;33.67;36.67
56568;BME280;42456;49.956;20.004;2022-07-23T08:25:33;98291.40;;;33.72;36.69
56568;BME280;42456;49.956;20.004;2022-07-23T08:28:05;98293.36;;;33.76;36.28
56568;BME280;42456;49.956;20.004;2022-07-23T08:30:34;98294.27;;;33.78;35.62
56568;BME280;42456;49.956;20.004;2022-07-23T08:33:07;98293.78;;;33.79;36.53
56568;BME280;42456;49.956;20.004;2022-07-23T08:35:38;98290.19;;;33.83;36.52
56568;BME280;42456;49.956;20.004;2022-07-23T08:38:09;98299.47;;;33.85;36.53
56568;BME280;42456;49.956;20.004;2022-07-23T08:40:38;98296.73;;;33.80;36.27
56568;BME280;42456;49.956;20.004;2022-07-23T08:43:11;98299.42;;;33.75;36.03
56568;BME280;42456;49.956;20.004;2022-07-23T08:45:42;98297.33;;;33.70;35.81
56568;BME280;42456;49.956;20.004;2022-07-23T08:48:21;98287.19;;;33.62;35.75
56568;BME280;42456;49.956;20.004;2022-07-23T08:50:54;98289.81;;;33.61;36.25
56568;BME280;42456;49.956;20.004;2022-07-23T08:53:23;98279.33;;;33.71;37.11
56568;BME280;42456;49.956;20.004;2022-07-23T08:55:53;98273.50;;;33.79;37.25
56568;BME280;42456;49.956;20.004;2022-07-23T08:58:21;98277.63;;;33.83;36.51
56568;BME280;42456;49.956;20.004;2022-07-23T09:00:48;98264.48;;;33.79;35.80
56568;BME280;42456;49.956;20.004;2022-07-23T09:03:18;98265.75;;;33.78;36.16
56568;BME280;42456;49.956;20.004;2022-07-23T09:05:47;98259.88;;;33.76;35.87
56568;BME280;42456;49.956;20.004;2022-07-23T09:08:23;98255.27;;;33.73;35.78
56568;BME280;42456;49.956;20.004;2022-07-23T09:10:59;98244.11;;;33.73;36.04
56568;BME280;42456;49.956;20.004;2022-07-23T09:13:29;98252.47;;;33.73;36.51
56568;BME280;42456;49.956;20.004;2022-07-23T09:16:07;98240.14;;;33.70;35.78
56568;BME280;42456;49.956;20.004;2022-07-23T09:18:44;98235.36;;;33.66;35.88
56568;BME280;42456;49.956;20.004;2022-07-23T09:21:21;98241.31;;;33.73;35.87
56568;BME280;42456;49.956;20.004;2022-07-23T09:24:01;98245.38;;;33.82;35.91
56568;BME280;42456;49.956;20.004;2022-07-23T09:26:39;98235.33;;;33.95;36.12
56568;BME280;42456;49.956;20.004;2022-07-23T09:29:10;98241.83;;;34.06;35.23
56568;BME280;42456;49.956;20.004;2022-07-23T09:31:52;98250.14;;;34.11;35.42
56568;BME280;42456;49.956;20.004;2022-07-23T09:34:22;98250.43;;;34.13;34.81
56568;BME280;42456;49.956;20.004;2022-07-23T09:36:52;98242.25;;;34.09;34.23
56568;BME280;42456;49.956;20.004;2022-07-23T09:39:29;98254.39;;;34.06;34.08
56568;BME280;42456;49.956;20.004;2022-07-23T09:41:57;98258.94;;;34.04;33.74
56568;BME280;42456;49.956;20.004;2022-07-23T09:44:24;98247.15;;;34.04;34.45
56568;BME280;42456;49.956;20.004;2022-07-23T09:46:52;98249.59;;;34.07;34.66
56568;BME280;42456;49.956;20.004;2022-07-23T09:49:22;98239.69;;;34.06;34.29
56568;BME280;42456;49.956;20.004;2022-07-23T09:51:58;98233.20;;;34.04;34.62
56568;BME280;42456;49.956;20.004;2022-07-23T09:54:29;98236.67;;;33.99;34.76
56568;BME280;42456;49.956;20.004;2022-07-23T09:57:00;98231.44;;;33.97;34.76
56568;BME280;42456;49.956;20.004;2022-07-23T09:59:32;98222.42;;;33.97;34.82
56568;BME280;42456;49.956;20.004;2022-07-23T10:02:01;98221.94;;;33.99;34.83
56568;BME280;42456;49.956;20.004;2022-07-23T10:04:30;98226.97;;;34.05;35.60
56568;BME280;42456;49.956;20.004;2022-07-23T10:06:59;98223.78;;;34.12;36.11
56568;BME280;42456;49.956;20.004;2022-07-23T10:09:33;98222.03;;;34.14;35.00
56568;BME280;42456;49.956;20.004;2022-07-23T10:12:03;98218.46;;;34.14;34.67
56568;BME280;42456;49.956;20.004;2022-07-23T10:14:45;98219.78;;;34.18;34.95
56568;BME280;42456;49.956;20.004;2022-07-23T10:17:11;98218.74;;;34.26;35.19
56568;BME280;42456;49.956;20.004;2022-07-23T10:19:38;98216.95;;;34.33;35.31
56568;BME280;42456;49.956;20.004;2022-07-23T10:22:08;98210.55;;;34.37;35.42
56568;BME280;42456;49.956;20.004;2022-07-23T10:38:41;98203.22;;;34.50;32.99
56568;BME280;42456;49.956;20.004;2022-07-23T10:41:09;98202.98;;;34.53;33.83
56568;BME280;42456;49.956;20.004;2022-07-23T10:43:36;98197.76;;;34.51;32.94
56568;BME280;42456;49.956;20.004;2022-07-23T10:46:23;98198.73;;;34.48;33.30
56568;BME280;42456;49.956;20.004;2022-07-23T10:54:52;98191.40;;;34.60;34.77
56568;BME280;42456;49.956;20.004;2022-07-23T10:57:22;98194.78;;;34.70;34.46
56568;BME280;42456;49.956;20.004;2022-07-23T11:02:48;98184.63;;;34.82;33.12
56568;BME280;42456;49.956;20.004;2022-07-23T11:05:15;98179.77;;;34.87;33.41
56568;BME280;42456;49.956;20.004;2022-07-23T11:10:38;98175.91;;;34.95;33.12
56568;BME280;42456;49.956;20.004;2022-07-23T11:16:07;98168.18;;;35.00;31.91
56568;BME280;42456;49.956;20.004;2022-07-23T11:24:09;98164.91;;;35.32;32.53
56568;BME280;42456;49.956;20.004;2022-07-23T11:26:48;98167.24;;;35.34;31.23
56568;BME280;42456;49.956;20.004;2022-07-23T11:34:41;98153.26;;;35.34;31.15
56568;BME280;42456;49.956;20.004;2022-07-23T11:37:12;98158.76;;;35.28;31.12
56568;BME280;42456;49.956;20.004;2022-07-23T11:39:39;98146.86;;;35.18;30.98
56568;BME280;42456;49.956;20.004;2022-07-23T11:42:06;98146.33;;;35.14;32.50
56568;BME280;42456;49.956;20.004;2022-07-23T11:44:36;98150.43;;;35.18;32.27
56568;BME280;42456;49.956;20.004;2022-07-23T11:47:06;98147.85;;;35.15;31.87
56568;BME280;42456;49.956;20.004;2022-07-23T11:49:34;98142.01;;;35.13;32.00
56568;BME280;42456;49.956;20.004;2022-07-23T11:52:09;98149.00;;;35.13;31.99
56568;BME280;42456;49.956;20.004;2022-07-23T11:54:58;98136.31;;;35.02;32.13
56568;BME280;42456;49.956;20.004;2022-07-23T11:57:34;98133.83;;;34.94;32.30
56568;BME280;42456;49.956;20.004;2022-07-23T12:00:15;98131.61;;;34.88;32.30
56568;BME280;42456;49.956;20.004;2022-07-23T12:02:50;98132.67;;;34.90;32.45
56568;BME280;42456;49.956;20.004;2022-07-23T12:05:23;98120.91;;;34.96;33.19
56568;BME280;42456;49.956;20.004;2022-07-23T12:07:51;98125.01;;;35.01;32.78
56568;BME280;42456;49.956;20.004;2022-07-23T12:10:28;98125.82;;;35.07;32.34
56568;BME280;42456;49.956;20.004;2022-07-23T12:12:58;98119.86;;;35.09;32.21
56568;BME280;42456;49.956;20.004;2022-07-23T12:15:32;98117.69;;;35.09;32.12
56568;BME280;42456;49.956;20.004;2022-07-23T12:18:03;98110.70;;;35.09;31.56
56568;BME280;42456;49.956;20.004;2022-07-23T12:20:33;98102.19;;;35.08;32.08
56568;BME280;42456;49.956;20.004;2022-07-23T12:23:04;98103.36;;;35.11;32.25
56568;BME280;42456;49.956;20.004;2022-07-23T12:25:34;98095.72;;;35.12;32.13
56568;BME280;42456;49.956;20.004;2022-07-23T12:28:08;98101.97;;;35.11;32.29
56568;BME280;42456;49.956;20.004;2022-07-23T12:30:47;98095.48;;;35.10;32.61
56568;BME280;42456;49.956;20.004;2022-07-23T12:33:23;98090.10;;;35.06;31.44
56568;BME280;42456;49.956;20.004;2022-07-23T12:35:54;98092.37;;;35.02;30.90
56568;BME280;42456;49.956;20.004;2022-07-23T12:38:28;98088.89;;;34.97;31.55
56568;BME280;42456;49.956;20.004;2022-07-23T12:40:58;98088.77;;;34.96;31.97
56568;BME280;42456;49.956;20.004;2022-07-23T12:43:29;98075.94;;;35.00;31.69
56568;BME280;42456;49.956;20.004;2022-07-23T12:46:09;98080.04;;;35.04;32.29
56568;BME280;42456;49.956;20.004;2022-07-23T12:48:51;98072.95;;;35.09;32.49
56568;BME280;42456;49.956;20.004;2022-07-23T12:51:31;98070.96;;;35.15;32.29
56568;BME280;42456;49.956;20.004;2022-07-23T12:54:09;98062.08;;;35.16;31.17
56568;BME280;42456;49.956;20.004;2022-07-23T12:56:38;98065.16;;;35.18;32.13
56568;BME280;42456;49.956;20.004;2022-07-23T12:59:08;98062.13;;;35.22;32.58
56568;BME280;42456;49.956;20.004;2022-07-23T13:01:41;98066.58;;;35.24;32.55
56568;BME280;42456;49.956;20.004;2022-07-23T13:04:18;98061.86;;;35.20;32.03
56568;BME280;42456;49.956;20.004;2022-07-23T13:06:46;98055.48;;;35.19;31.93
56568;BME280;42456;49.956;20.004;2022-07-23T13:09:17;98055.24;;;35.17;31.35
56568;BME280;42456;49.956;20.004;2022-07-23T13:11:46;98047.20;;;35.15;31.41
56568;BME280;42456;49.956;20.004;2022-07-23T13:14:14;98041.95;;;35.07;30.35
56568;BME280;42456;49.956;20.004;2022-07-23T13:16:42;98044.94;;;34.98;30.53
56568;BME280;42456;49.956;20.004;2022-07-23T13:19:09;98049.45;;;34.90;30.94
56568;BME280;42456;49.956;20.004;2022-07-23T13:21:36;98042.83;;;34.87;31.55
56568;BME280;42456;49.956;20.004;2022-07-23T13:24:03;98041.75;;;34.85;30.62
56568;BME280;42456;49.956;20.004;2022-07-23T13:26:29;98035.13;;;34.82;30.57
56568;BME280;42456;49.956;20.004;2022-07-23T13:28:56;98039.73;;;34.85;30.45
56568;BME280;42456;49.956;20.004;2022-07-23T13:31:22;98039.95;;;34.92;33.42
56568;BME280;42456;49.956;20.004;2022-07-23T13:33:48;98036.80;;;35.00;34.75
56568;BME280;42456;49.956;20.004;2022-07-23T13:36:15;98037.79;;;35.12;33.81
56568;BME280;42456;49.956;20.004;2022-07-23T13:38:41;98037.37;;;35.25;32.96